createdAt,value
2018-06-27T00:00:01.937Z,92.59
2018-06-27T00:02:30.865Z,92.69
2018-06-27T00:04:59.471Z,92.61
2018-06-27T00:07:28.438Z,92.63
2018-06-27T00:09:56.991Z,92.55
2018-06-27T00:12:25.966Z,92.67
2018-06-27T00:14:54.833Z,92.30
2018-06-27T00:17:23.464Z,92.09
2018-06-27T00:19:52.191Z,91.98
2018-06-27T00:22:20.944Z,92.29
2018-06-27T00:24:50.251Z,92.36
2018-06-27T00:27:19.001Z,92.45
2018-06-27T00:29:47.695Z,92.60
2018-06-27T00:32:17.160Z,92.76
2018-06-27T00:34:45.741Z,92.92
2018-06-27T00:37:15.147Z,92.74
2018-06-27T00:39:43.769Z,92.49
2018-06-27T00:42:12.712Z,92.69
2018-06-27T00:44:41.485Z,93.17
2018-06-27T00:47:10.243Z,93.02
2018-06-27T00:49:39.380Z,93.07
2018-06-27T00:52:08.628Z,93.33
2018-06-27T00:54:37.986Z,93.38
2018-06-27T00:57:07.862Z,93.05
2018-06-27T00:59:36.416Z,92.65
2018-06-27T01:02:05.072Z,93.58
2018-06-27T01:04:33.825Z,93.43
2018-06-27T01:07:02.374Z,93.47
2018-06-27T01:09:31.685Z,93.32
2018-06-27T01:12:00.481Z,93.43
2018-06-27T01:14:30.014Z,93.78
2018-06-27T01:16:58.866Z,93.67
2018-06-27T01:19:27.582Z,93.86
2018-06-27T01:21:56.755Z,93.49
2018-06-27T01:24:25.559Z,93.73
2018-06-27T01:26:54.216Z,94.25
2018-06-27T01:29:23.067Z,94.14
2018-06-27T01:31:51.772Z,93.77
2018-06-27T01:34:20.542Z,93.77
2018-06-27T01:36:49.163Z,93.62
2018-06-27T01:39:18.470Z,93.70
2018-06-27T01:41:47.290Z,93.94
2018-06-27T01:44:15.972Z,93.86
2018-06-27T01:46:44.715Z,94.09
2018-06-27T01:49:13.437Z,94.35
2018-06-27T01:51:42.183Z,94.25
2018-06-27T01:54:11.480Z,93.98
2018-06-27T01:56:40.282Z,94.36
2018-06-27T01:59:08.892Z,94.17
2018-06-27T02:01:37.564Z,94.46
2018-06-27T02:04:06.346Z,94.34
2018-06-27T02:06:35.047Z,94.65
2018-06-27T02:09:04.038Z,94.46
2018-06-27T02:11:32.932Z,94.55
2018-06-27T02:14:01.596Z,94.33
2018-06-27T02:16:30.207Z,94.33
2018-06-27T02:18:59.697Z,94.62
2018-06-27T02:21:29.036Z,94.56
2018-06-27T02:23:57.816Z,94.37
2018-06-27T02:26:26.522Z,94.39
2018-06-27T02:28:55.401Z,94.66
2018-06-27T02:31:24.080Z,94.74
2018-06-27T02:33:53.227Z,95.01
2018-06-27T02:36:21.756Z,95.03
2018-06-27T02:38:50.487Z,94.86
2018-06-27T02:41:19.446Z,94.80
2018-06-27T02:43:48.154Z,94.92
2018-06-27T02:46:16.999Z,95.01
2018-06-27T02:48:46.209Z,95.25
2018-06-27T02:51:15.396Z,95.12
2018-06-27T02:53:44.162Z,95.20
2018-06-27T02:56:13.071Z,94.67
2018-06-27T02:58:41.696Z,94.71
2018-06-27T03:01:10.685Z,94.67
2018-06-27T03:03:39.938Z,94.51
2018-06-27T03:06:08.695Z,94.97
2018-06-27T03:08:37.411Z,94.78
2018-06-27T03:11:06.527Z,94.99
2018-06-27T03:13:35.427Z,94.89
2018-06-27T03:16:04.032Z,95.22
2018-06-27T03:18:33.293Z,95.30
2018-06-27T03:21:02.083Z,95.08
2018-06-27T03:23:30.735Z,94.84
2018-06-27T03:25:59.410Z,95.11
2018-06-27T03:28:28.193Z,94.82
2018-06-27T03:30:57.083Z,94.72
2018-06-27T03:33:25.677Z,95.08
2018-06-27T03:35:54.536Z,94.96
2018-06-27T03:38:23.856Z,94.97
2018-06-27T03:40:52.507Z,94.68
2018-06-27T03:43:21.711Z,94.60
2018-06-27T03:45:50.443Z,95.12
2018-06-27T03:48:20.156Z,94.96
2018-06-27T03:50:49.499Z,94.81
2018-06-27T03:53:18.619Z,94.63
2018-06-27T03:55:47.731Z,94.65
2018-06-27T03:58:17.097Z,94.78
2018-06-27T04:00:46.054Z,94.65
2018-06-27T04:03:15.562Z,94.92
2018-06-27T04:05:44.218Z,93.87
2018-06-27T04:08:12.859Z,93.95
2018-06-27T04:10:41.921Z,93.68
2018-06-27T04:13:10.776Z,93.70
2018-06-27T04:15:39.447Z,93.56
2018-06-27T04:18:16.718Z,93.41
2018-06-27T04:20:45.536Z,92.97
2018-06-27T04:23:14.198Z,92.93
2018-06-27T04:25:42.908Z,92.62
2018-06-27T04:28:12.459Z,91.96
2018-06-27T04:30:42.701Z,92.21
2018-06-27T04:33:11.890Z,92.02
2018-06-27T04:35:40.796Z,91.67
2018-06-27T04:38:09.559Z,91.93
2018-06-27T04:40:38.302Z,91.89
2018-06-27T04:43:07.191Z,91.67
2018-06-27T04:45:36.086Z,91.76
2018-06-27T04:48:05.214Z,91.45
2018-06-27T04:50:33.945Z,91.07
2018-06-27T04:53:02.612Z,90.69
2018-06-27T04:55:31.603Z,90.06
2018-06-27T04:58:00.289Z,89.37
2018-06-27T05:00:29.096Z,88.96
2018-06-27T05:02:57.850Z,88.74
2018-06-27T05:05:26.795Z,88.35
2018-06-27T05:07:56.587Z,88.25
2018-06-27T05:10:25.427Z,87.41
2018-06-27T05:12:54.247Z,86.76
2018-06-27T05:15:23.061Z,86.30
2018-06-27T05:17:51.982Z,85.63
2018-06-27T05:20:20.876Z,85.22
2018-06-27T05:22:49.624Z,84.62
2018-06-27T05:25:18.451Z,83.84
2018-06-27T05:27:47.068Z,83.00
2018-06-27T05:30:15.957Z,82.12
2018-06-27T05:32:44.613Z,80.35
2018-06-27T05:35:13.610Z,77.55
2018-06-27T05:37:42.233Z,75.09
2018-06-27T05:43:13.902Z,69.93
2018-06-27T05:45:42.693Z,68.82
2018-06-27T05:48:11.640Z,67.84
2018-06-27T05:50:41.122Z,68.78
2018-06-27T05:53:10.004Z,67.43
2018-06-27T05:55:39.554Z,64.66
2018-06-27T05:58:08.346Z,62.79
2018-06-27T06:00:37.167Z,60.65
2018-06-27T06:03:06.331Z,59.70
2018-06-27T06:05:35.157Z,61.82
2018-06-27T06:08:04.397Z,62.45
2018-06-27T06:10:33.824Z,61.25
2018-06-27T06:13:03.308Z,58.84
2018-06-27T06:15:31.999Z,56.97
2018-06-27T06:18:00.672Z,55.56
2018-06-27T06:20:29.804Z,53.95
2018-06-27T06:22:58.675Z,52.49
2018-06-27T06:25:27.425Z,51.45
2018-06-27T06:27:56.813Z,51.08
2018-06-27T06:30:25.849Z,52.49
2018-06-27T06:32:55.177Z,54.41
2018-06-27T06:35:23.882Z,56.38
2018-06-27T06:37:52.516Z,59.10
2018-06-27T06:40:22.292Z,60.81
2018-06-27T06:42:51.052Z,60.31
2018-06-27T06:45:20.138Z,61.10
2018-06-27T06:47:49.068Z,60.50
2018-06-27T06:50:17.791Z,58.55
2018-06-27T06:52:47.178Z,59.66
2018-06-27T06:55:16.672Z,59.87
2018-06-27T06:57:45.339Z,61.86
2018-06-27T07:00:14.382Z,62.54
2018-06-27T07:02:43.117Z,62.11
2018-06-27T07:05:11.985Z,61.91
2018-06-27T07:07:40.669Z,59.79
2018-06-27T07:10:09.444Z,56.61
2018-06-27T07:12:38.551Z,57.60
2018-06-27T07:15:08.112Z,54.48
2018-06-27T07:17:37.202Z,54.11
2018-06-27T07:20:05.952Z,55.95
2018-06-27T07:22:34.534Z,52.92
2018-06-27T07:25:03.513Z,48.74
2018-06-27T07:27:32.158Z,44.00
2018-06-27T07:30:01.080Z,42.24
2018-06-27T07:32:29.752Z,40.23
2018-06-27T07:34:58.679Z,38.75
2018-06-27T07:37:27.549Z,38.25
2018-06-27T07:39:56.204Z,38.37
2018-06-27T07:42:25.447Z,37.18
2018-06-27T07:44:54.210Z,37.54
2018-06-27T07:47:22.933Z,36.74
2018-06-27T07:49:52.291Z,34.91
2018-06-27T07:52:20.958Z,33.38
2018-06-27T07:54:49.685Z,34.71
2018-06-27T07:57:18.790Z,32.77
2018-06-27T07:59:47.785Z,32.36
2018-06-27T08:02:16.444Z,31.88
2018-06-27T08:04:45.599Z,31.00
2018-06-27T08:07:14.854Z,30.96
2018-06-27T08:09:43.519Z,29.96
2018-06-27T08:12:12.185Z,28.41
2018-06-27T08:14:41.045Z,29.81
2018-06-27T08:17:10.579Z,30.45
2018-06-27T08:19:39.184Z,28.56
2018-06-27T08:22:08.090Z,26.85
2018-06-27T08:24:37.380Z,27.26
2018-06-27T08:27:07.430Z,25.59
2018-06-27T08:29:36.336Z,26.38
2018-06-27T08:32:05.018Z,25.85
2018-06-27T08:34:33.986Z,25.30
2018-06-27T08:37:02.719Z,24.26
2018-06-27T08:39:31.705Z,25.19
2018-06-27T08:42:00.528Z,25.24
2018-06-27T08:44:30.144Z,26.44
2018-06-27T08:46:58.768Z,25.80
2018-06-27T08:49:27.600Z,24.85
2018-06-27T08:51:56.376Z,24.25
2018-06-27T08:54:25.209Z,24.07
2018-06-27T08:56:54.148Z,23.52
2018-06-27T08:59:22.923Z,24.49
2018-06-27T09:01:51.794Z,22.87
2018-06-27T09:04:20.575Z,22.29
2018-06-27T09:06:49.160Z,23.86
2018-06-27T09:09:18.102Z,23.76
2018-06-27T09:11:46.825Z,26.81
2018-06-27T09:14:15.543Z,29.52
2018-06-27T09:16:45.188Z,31.77
2018-06-27T09:19:13.990Z,32.60
2018-06-27T09:21:42.600Z,34.01
2018-06-27T09:24:11.731Z,33.92
2018-06-27T09:26:40.639Z,31.19
2018-06-27T09:29:09.210Z,27.91
2018-06-27T09:31:37.944Z,29.30
2018-06-27T09:34:06.834Z,30.34
2018-06-27T09:36:35.925Z,31.09
2018-06-27T09:39:08.305Z,28.82
2018-06-27T09:41:37.169Z,27.82
2018-06-27T09:44:06.749Z,27.14
2018-06-27T09:46:36.319Z,25.55
2018-06-27T09:49:05.041Z,23.85
2018-06-27T09:51:34.435Z,24.86
2018-06-27T09:54:03.324Z,25.71
2018-06-27T09:56:32.775Z,27.31
2018-06-27T09:59:02.016Z,28.58
2018-06-27T10:01:31.455Z,27.43
2018-06-27T10:04:00.341Z,25.17
2018-06-27T10:06:29.227Z,27.26
2018-06-27T10:08:57.846Z,29.95
2018-06-27T10:11:26.685Z,29.44
2018-06-27T10:13:57.411Z,26.69
2018-06-27T10:16:26.065Z,22.81
2018-06-27T10:18:54.851Z,20.79
2018-06-27T10:21:23.519Z,20.34
2018-06-27T10:23:52.248Z,21.33
2018-06-27T10:26:21.660Z,19.65
2018-06-27T10:28:50.635Z,20.21
2018-06-27T10:31:19.508Z,21.24
2018-06-27T10:33:48.244Z,22.42
2018-06-27T10:36:18.079Z,21.63
2018-06-27T10:38:46.812Z,19.47
2018-06-27T10:41:15.404Z,17.93
2018-06-27T10:43:43.963Z,17.61
2018-06-27T10:46:12.864Z,16.01
2018-06-27T10:48:41.431Z,17.25
2018-06-27T10:51:10.348Z,18.20
2018-06-27T10:53:38.888Z,18.75
2018-06-27T10:56:07.512Z,19.95
2018-06-27T10:58:36.406Z,21.85
2018-06-27T11:01:05.600Z,23.46
2018-06-27T11:03:34.351Z,23.72
2018-06-27T11:06:03.107Z,25.53
2018-06-27T11:08:31.840Z,25.79
2018-06-27T11:11:00.609Z,23.63
2018-06-27T11:13:29.816Z,21.23
2018-06-27T11:15:58.629Z,21.58
2018-06-27T11:18:27.885Z,24.12
2018-06-27T11:20:56.580Z,26.09
2018-06-27T11:23:25.923Z,27.75
2018-06-27T11:25:54.896Z,30.08
2018-06-27T11:28:24.122Z,31.94
2018-06-27T11:30:52.990Z,32.70
2018-06-27T11:33:21.680Z,34.40
2018-06-27T11:35:50.479Z,35.16
2018-06-27T11:38:19.560Z,34.94
2018-06-27T11:40:48.320Z,34.83
2018-06-27T11:43:17.182Z,31.48
2018-06-27T11:45:45.870Z,28.67
2018-06-27T11:48:14.641Z,26.17
2018-06-27T11:50:44.197Z,25.16
2018-06-27T11:53:12.921Z,24.66
2018-06-27T11:55:41.704Z,25.73
2018-06-27T11:58:11.152Z,25.21
2018-06-27T12:00:40.099Z,25.09
2018-06-27T12:03:08.977Z,23.08
2018-06-27T12:05:37.653Z,21.78
2018-06-27T12:08:07.065Z,21.92
2018-06-27T12:10:35.985Z,21.59
2018-06-27T12:13:04.821Z,22.81
2018-06-27T12:15:33.620Z,24.30
2018-06-27T12:18:02.636Z,26.10
2018-06-27T12:20:31.646Z,26.21
2018-06-27T12:23:00.415Z,25.75
2018-06-27T12:25:29.316Z,25.08
2018-06-27T12:27:58.661Z,23.97
2018-06-27T12:30:28.038Z,23.10
2018-06-27T12:32:57.762Z,22.21
2018-06-27T12:35:26.424Z,22.77
2018-06-27T12:37:55.191Z,24.73
2018-06-27T12:40:23.815Z,23.79
2018-06-27T12:42:53.117Z,25.45
2018-06-27T12:45:21.829Z,25.56
2018-06-27T12:47:50.521Z,25.68
2018-06-27T12:50:20.084Z,26.12
2018-06-27T12:52:48.824Z,26.49
2018-06-27T12:55:17.495Z,27.73
2018-06-27T12:57:46.404Z,27.29
2018-06-27T13:00:15.269Z,27.16
2018-06-27T13:02:43.881Z,26.95
2018-06-27T13:05:12.727Z,28.42
2018-06-27T13:07:41.519Z,28.78
2018-06-27T13:10:10.630Z,29.17
2018-06-27T13:12:39.410Z,28.36
2018-06-27T13:15:08.260Z,27.49
2018-06-27T13:17:37.040Z,27.15
2018-06-27T13:20:06.109Z,27.95
2018-06-27T13:22:34.787Z,27.02
2018-06-27T13:25:03.561Z,27.78
2018-06-27T13:27:32.222Z,26.28
2018-06-27T13:30:00.844Z,27.59
2018-06-27T13:32:29.507Z,27.22
2018-06-27T13:34:59.035Z,27.75
2018-06-27T13:37:27.762Z,27.52
2018-06-27T13:39:56.477Z,28.48
2018-06-27T13:42:25.216Z,27.98
2018-06-27T13:44:53.917Z,27.85
2018-06-27T13:47:22.541Z,28.41
2018-06-27T13:49:51.265Z,26.48
2018-06-27T13:52:20.436Z,26.01
2018-06-27T13:54:55.941Z,25.92
2018-06-27T13:57:26.065Z,24.86
2018-06-27T13:59:55.282Z,24.88
2018-06-27T14:02:24.101Z,24.95
2018-06-27T14:04:53.022Z,24.73
2018-06-27T14:07:22.779Z,26.11
2018-06-27T14:09:51.791Z,26.78
2018-06-27T14:12:20.747Z,27.30
2018-06-27T14:14:49.576Z,27.56
2018-06-27T14:17:18.871Z,28.11
2018-06-27T14:19:47.680Z,28.42
2018-06-27T14:22:17.247Z,27.97
2018-06-27T14:24:46.244Z,27.00
2018-06-27T14:27:15.356Z,26.95
2018-06-27T14:29:44.174Z,27.30
2018-06-27T14:32:12.959Z,29.03
2018-06-27T14:34:42.330Z,29.31
2018-06-27T14:37:11.854Z,29.26
2018-06-27T14:39:40.639Z,28.88
2018-06-27T14:42:09.451Z,29.22
2018-06-27T14:44:38.180Z,29.51
2018-06-27T14:47:07.247Z,28.90
2018-06-27T14:49:36.478Z,29.41
2018-06-27T14:52:05.262Z,29.75
2018-06-27T14:54:34.396Z,29.87
2018-06-27T14:57:03.165Z,29.81
2018-06-27T14:59:32.416Z,29.87
2018-06-27T15:02:00.987Z,29.12
2018-06-27T15:04:29.940Z,29.25
2018-06-27T15:06:59.307Z,29.70
2018-06-27T15:09:28.359Z,29.62
2018-06-27T15:11:57.475Z,29.88
2018-06-27T15:14:26.467Z,29.64
2018-06-27T15:16:55.221Z,30.39
2018-06-27T15:19:24.179Z,29.82
2018-06-27T15:21:53.277Z,29.45
2018-06-27T15:24:21.960Z,28.17
2018-06-27T15:26:50.857Z,29.55
2018-06-27T15:29:19.741Z,29.21
2018-06-27T15:31:48.666Z,29.61
2018-06-27T15:34:17.606Z,29.54
2018-06-27T15:36:46.404Z,29.78
2018-06-27T15:39:15.108Z,30.13
2018-06-27T15:41:44.245Z,29.99
2018-06-27T15:44:13.348Z,30.15
2018-06-27T15:46:42.078Z,30.21
2018-06-27T15:49:11.177Z,28.25
2018-06-27T15:51:41.120Z,27.67
2018-06-27T15:54:10.713Z,29.35
2018-06-27T15:56:39.460Z,28.80
2018-06-27T15:59:08.900Z,29.20
2018-06-27T16:01:37.702Z,29.13
2018-06-27T16:04:06.448Z,28.51
2018-06-27T16:06:35.181Z,28.77
2018-06-27T16:09:04.668Z,29.18
2018-06-27T16:11:33.675Z,30.26
2018-06-27T16:14:03.252Z,29.90
2018-06-27T16:16:32.012Z,29.38
2018-06-27T16:19:01.842Z,29.41
2018-06-27T16:21:30.695Z,29.40
2018-06-27T16:23:59.652Z,29.49
2018-06-27T16:26:28.376Z,29.82
2018-06-27T16:28:57.222Z,30.44
2018-06-27T16:31:26.725Z,30.97
2018-06-27T16:33:55.688Z,30.94
2018-06-27T16:36:24.265Z,29.25
2018-06-27T16:38:53.257Z,29.75
2018-06-27T16:41:21.998Z,30.36
2018-06-27T16:43:50.950Z,30.20
2018-06-27T16:46:20.089Z,32.88
2018-06-27T16:48:49.026Z,32.37
2018-06-27T16:51:18.288Z,31.39
2018-06-27T16:53:47.296Z,29.64
2018-06-27T16:56:15.957Z,29.48
2018-06-27T16:58:45.247Z,29.79
2018-06-27T17:01:14.419Z,28.95
2018-06-27T17:03:43.372Z,28.69
2018-06-27T17:06:12.952Z,28.19
2018-06-27T17:08:41.838Z,27.74
2018-06-27T17:11:10.987Z,27.76
2018-06-27T17:13:39.832Z,28.83
2018-06-27T17:16:09.106Z,27.25
2018-06-27T17:18:38.218Z,27.32
2018-06-27T17:21:07.280Z,27.04
2018-06-27T17:23:36.579Z,27.29
2018-06-27T17:26:05.665Z,27.91
2018-06-27T17:28:34.402Z,27.55
2018-06-27T17:31:03.518Z,27.71
2018-06-27T17:33:32.442Z,27.36
2018-06-27T17:36:01.487Z,27.21
2018-06-27T17:38:30.531Z,26.57
2018-06-27T17:41:00.068Z,27.82
2018-06-27T17:43:28.992Z,29.12
2018-06-27T17:45:57.983Z,31.39
2018-06-27T17:48:26.923Z,32.17
2018-06-27T17:50:56.080Z,33.32
2018-06-27T17:53:25.171Z,33.87
2018-06-27T17:55:54.101Z,35.05
2018-06-27T17:58:22.928Z,36.29
2018-06-27T18:00:52.124Z,36.62
2018-06-27T18:03:21.178Z,37.04
2018-06-27T18:05:50.196Z,37.29
2018-06-27T18:08:19.412Z,37.60
2018-06-27T18:10:49.153Z,37.90
2018-06-27T18:13:18.023Z,38.71
2018-06-27T18:15:47.227Z,38.89
2018-06-27T18:18:16.096Z,39.58
2018-06-27T18:20:44.928Z,39.51
2018-06-27T18:23:14.331Z,39.76
2018-06-27T18:25:43.189Z,40.40
2018-06-27T18:28:12.023Z,41.07
2018-06-27T18:30:41.756Z,41.39
2018-06-27T18:33:11.002Z,41.52
2018-06-27T18:35:40.760Z,42.05
2018-06-27T18:38:09.950Z,43.12
2018-06-27T18:40:39.638Z,42.78
2018-06-27T18:43:09.021Z,43.31
2018-06-27T18:45:38.242Z,43.61
2018-06-27T18:48:07.783Z,45.09
2018-06-27T18:50:37.356Z,47.47
2018-06-27T18:53:06.746Z,46.24
2018-06-27T18:55:36.529Z,45.78
2018-06-27T18:58:06.031Z,44.27
2018-06-27T19:00:35.448Z,43.96
2018-06-27T19:03:04.895Z,44.90
2018-06-27T19:05:33.947Z,43.71
2018-06-27T19:08:03.396Z,44.53
2018-06-27T19:10:33.756Z,42.67
2018-06-27T19:13:02.977Z,43.11
2018-06-27T19:15:32.252Z,42.78
2018-06-27T19:18:01.588Z,42.95
2018-06-27T19:20:31.007Z,43.37
2018-06-27T19:23:00.153Z,43.23
2018-06-27T19:25:29.229Z,43.20
2018-06-27T19:27:58.517Z,43.68
2018-06-27T19:30:27.996Z,44.07
2018-06-27T19:32:57.889Z,44.17
2018-06-27T19:35:27.344Z,44.71
2018-06-27T19:37:56.526Z,44.29
2018-06-27T19:40:25.887Z,45.06
2018-06-27T19:42:55.119Z,45.93
2018-06-27T19:45:24.643Z,46.30
2018-06-27T19:47:54.011Z,47.50
2018-06-27T19:50:23.462Z,48.16
2018-06-27T19:52:52.838Z,47.87
2018-06-27T19:55:22.417Z,47.87
2018-06-27T19:57:51.683Z,48.55
2018-06-27T20:00:20.799Z,50.77
2018-06-27T20:02:50.188Z,51.35
2018-06-27T20:05:20.189Z,51.69
2018-06-27T20:07:49.717Z,52.16
2018-06-27T20:10:19.523Z,53.46
2018-06-27T20:12:48.745Z,54.07
2018-06-27T20:15:18.089Z,54.58
2018-06-27T20:17:47.241Z,54.68
2018-06-27T20:20:16.891Z,55.66
2018-06-27T20:22:46.384Z,55.91
2018-06-27T20:25:15.783Z,57.23
2018-06-27T20:27:45.341Z,57.63
2018-06-27T20:30:16.126Z,57.85
2018-06-27T20:32:45.695Z,57.90
2018-06-27T20:35:15.788Z,57.91
2018-06-27T20:37:44.956Z,58.61
2018-06-27T20:40:14.387Z,58.24
2018-06-27T20:42:44.234Z,58.39
2018-06-27T20:45:13.436Z,58.98
2018-06-27T20:47:42.741Z,59.83
2018-06-27T20:50:12.032Z,60.25
2018-06-27T20:52:41.926Z,60.80
2018-06-27T20:55:11.169Z,60.63
2018-06-27T20:57:40.429Z,60.60
2018-06-27T21:00:09.737Z,61.27
2018-06-27T21:02:38.962Z,61.78
2018-06-27T21:05:08.217Z,62.75
2018-06-27T21:07:37.373Z,62.48
2018-06-27T21:10:06.747Z,62.90
2018-06-27T21:12:36.042Z,63.04
2018-06-27T21:15:06.006Z,64.25
2018-06-27T21:17:35.430Z,64.76
2018-06-27T21:20:04.181Z,64.84
2018-06-27T21:22:33.047Z,65.24
2018-06-27T21:25:01.913Z,65.83
2018-06-27T21:27:31.053Z,66.81
2018-06-27T21:30:00.112Z,66.80
2018-06-27T21:32:29.672Z,67.46
2018-06-27T21:34:58.638Z,67.67
2018-06-27T21:37:27.798Z,67.84
2018-06-27T21:39:57.232Z,68.75
2018-06-27T21:42:25.932Z,68.34
2018-06-27T21:44:55.461Z,68.81
2018-06-27T21:47:24.199Z,68.58
2018-06-27T21:49:53.029Z,68.58
2018-06-27T21:52:22.441Z,69.17
2018-06-27T21:54:51.187Z,69.02
2018-06-27T21:57:19.827Z,69.34
2018-06-27T21:59:48.886Z,70.30
2018-06-27T22:02:17.713Z,70.93
2018-06-27T22:04:46.538Z,71.24
2018-06-27T22:07:15.500Z,71.25
2018-06-27T22:09:44.971Z,71.57
2018-06-27T22:12:14.017Z,71.79
2018-06-27T22:14:42.887Z,71.98
2018-06-27T22:17:12.399Z,71.53
2018-06-27T22:19:41.183Z,72.03
2018-06-27T22:22:09.889Z,71.55
2018-06-27T22:24:38.535Z,71.75
2018-06-27T22:27:07.423Z,72.75
2018-06-27T22:29:36.603Z,72.28
2018-06-27T22:32:06.097Z,73.02
2018-06-27T22:34:35.002Z,73.94
2018-06-27T22:37:04.373Z,74.10
2018-06-27T22:39:33.212Z,74.54
2018-06-27T22:42:02.786Z,74.47
2018-06-27T22:44:31.589Z,74.58
2018-06-27T22:47:01.167Z,75.16
2018-06-27T22:49:30.042Z,75.28
2018-06-27T22:51:58.883Z,75.73
2018-06-27T22:54:27.891Z,75.74
2018-06-27T22:56:58.917Z,76.44
2018-06-27T22:59:28.174Z,77.12
2018-06-27T23:01:57.457Z,77.32
2018-06-27T23:04:26.667Z,77.61
2018-06-27T23:06:55.323Z,77.67
2018-06-27T23:09:24.133Z,78.08
2018-06-27T23:11:53.484Z,78.23
2018-06-27T23:14:22.478Z,78.79
2018-06-27T23:16:51.465Z,78.58
2018-06-27T23:19:21.093Z,78.60
2018-06-27T23:21:49.658Z,79.42
2018-06-27T23:24:18.497Z,79.89
2018-06-27T23:26:47.709Z,80.27
2018-06-27T23:29:16.662Z,80.21
2018-06-27T23:31:45.502Z,80.61
2018-06-27T23:34:15.353Z,81.04
2018-06-27T23:36:44.802Z,81.49
2018-06-27T23:39:15.112Z,81.68
2018-06-27T23:41:44.227Z,82.21
2018-06-27T23:44:13.202Z,82.43
2018-06-27T23:46:42.118Z,82.41
2018-06-27T23:49:11.682Z,83.04
2018-06-27T23:51:41.143Z,83.14
2018-06-27T23:54:10.169Z,83.06
2018-06-27T23:56:38.733Z,82.81
2018-06-27T23:59:07.411Z,83.38
